sensor_id;sensor_type;location;lat;lon;timestamp;P1;durP1;ratioP1;P2;durP2;ratioP2
48635;SDS011;34429;52.332;5.614;2022-09-14T00:01:40;4.85;;;1.67;;
48635;SDS011;34429;52.332;5.614;2022-09-14T00:04:10;4.28;;;1.80;;
48635;SDS011;34429;52.332;5.614;2022-09-14T00:06:43;2.22;;;1.40;;
48635;SDS011;34429;52.332;5.614;2022-09-14T00:09:13;3.00;;;1.60;;
48635;SDS011;34429;52.332;5.614;2022-09-14T00:11:43;5.60;;;1.98;;
48635;SDS011;34429;52.332;5.614;2022-09-14T00:14:12;4.50;;;1.80;;
48635;SDS011;34429;52.332;5.614;2022-09-14T00:16:40;2.83;;;1.77;;
48635;SDS011;34429;52.332;5.614;2022-09-14T00:19:14;5.03;;;1.90;;
48635;SDS011;34429;52.332;5.614;2022-09-14T00:21:48;4.18;;;2.63;;
48635;SDS011;34429;52.332;5.614;2022-09-14T00:24:18;2.97;;;1.40;;
48635;SDS011;34429;52.332;5.614;2022-09-14T00:26:46;6.95;;;1.83;;
48635;SDS011;34429;52.332;5.614;2022-09-14T00:29:15;4.05;;;1.73;;
48635;SDS011;34429;52.332;5.614;2022-09-14T00:31:43;4.43;;;2.50;;
48635;SDS011;34429;52.332;5.614;2022-09-14T00:34:12;3.90;;;1.70;;
48635;SDS011;34429;52.332;5.614;2022-09-14T00:36:44;4.25;;;1.90;;
48635;SDS011;34429;52.332;5.614;2022-09-14T00:39:18;7.28;;;2.28;;
48635;SDS011;34429;52.332;5.614;2022-09-14T00:41:49;11.90;;;4.97;;
48635;SDS011;34429;52.332;5.614;2022-09-14T00:47:18;4.32;;;1.98;;
48635;SDS011;34429;52.332;5.614;2022-09-14T00:49:47;9.68;;;2.22;;
48635;SDS011;34429;52.332;5.614;2022-09-14T00:52:19;4.93;;;2.10;;
48635;SDS011;34429;52.332;5.614;2022-09-14T00:54:52;2.90;;;1.73;;
48635;SDS011;34429;52.332;5.614;2022-09-14T00:57:23;4.03;;;2.22;;
48635;SDS011;34429;52.332;5.614;2022-09-14T00:59:54;3.72;;;1.75;;
48635;SDS011;34429;52.332;5.614;2022-09-14T01:04:53;6.05;;;2.42;;
48635;SDS011;34429;52.332;5.614;2022-09-14T01:07:28;4.47;;;2.20;;
48635;SDS011;34429;52.332;5.614;2022-09-14T01:10:09;5.03;;;2.50;;
48635;SDS011;34429;52.332;5.614;2022-09-14T01:12:48;6.10;;;1.98;;
48635;SDS011;34429;52.332;5.614;2022-09-14T01:15:26;5.47;;;2.42;;
48635;SDS011;34429;52.332;5.614;2022-09-14T01:18:02;6.65;;;2.13;;
48635;SDS011;34429;52.332;5.614;2022-09-14T01:20:34;6.28;;;2.78;;
48635;SDS011;34429;52.332;5.614;2022-09-14T01:23:11;5.35;;;2.42;;
48635;SDS011;34429;52.332;5.614;2022-09-14T01:28:36;5.88;;;2.50;;
48635;SDS011;34429;52.332;5.614;2022-09-14T01:31:11;5.07;;;2.15;;
48635;SDS011;34429;52.332;5.614;2022-09-14T01:33:44;9.20;;;2.60;;
48635;SDS011;34429;52.332;5.614;2022-09-14T01:36:18;6.30;;;2.58;;
48635;SDS011;34429;52.332;5.614;2022-09-14T01:38:48;4.05;;;2.42;;
48635;SDS011;34429;52.332;5.614;2022-09-14T01:41:22;8.20;;;2.35;;
48635;SDS011;34429;52.332;5.614;2022-09-14T01:43:58;5.00;;;2.30;;
48635;SDS011;34429;52.332;5.614;2022-09-14T01:46:32;4.95;;;2.22;;
48635;SDS011;34429;52.332;5.614;2022-09-14T01:49:07;5.70;;;2.60;;
48635;SDS011;34429;52.332;5.614;2022-09-14T01:51:41;7.85;;;3.17;;
48635;SDS011;34429;52.332;5.614;2022-09-14T01:54:15;7.03;;;2.47;;
48635;SDS011;34429;52.332;5.614;2022-09-14T01:56:48;8.73;;;2.92;;
48635;SDS011;34429;52.332;5.614;2022-09-14T01:59:23;5.68;;;2.42;;
48635;SDS011;34429;52.332;5.614;2022-09-14T02:01:54;5.50;;;2.47;;
48635;SDS011;34429;52.332;5.614;2022-09-14T02:04:28;5.70;;;2.42;;
48635;SDS011;34429;52.332;5.614;2022-09-14T02:07:02;4.55;;;2.47;;
48635;SDS011;34429;52.332;5.614;2022-09-14T02:09:31;6.18;;;2.30;;
48635;SDS011;34429;52.332;5.614;2022-09-14T02:11:59;4.97;;;2.30;;
48635;SDS011;34429;52.332;5.614;2022-09-14T02:14:31;5.70;;;2.70;;
48635;SDS011;34429;52.332;5.614;2022-09-14T02:16:59;5.00;;;2.55;;
48635;SDS011;34429;52.332;5.614;2022-09-14T02:19:29;7.00;;;2.60;;
48635;SDS011;34429;52.332;5.614;2022-09-14T02:22:01;5.50;;;2.20;;
48635;SDS011;34429;52.332;5.614;2022-09-14T02:24:30;5.47;;;2.15;;
48635;SDS011;34429;52.332;5.614;2022-09-14T02:26:58;3.53;;;2.20;;
48635;SDS011;34429;52.332;5.614;2022-09-14T02:29:31;6.15;;;2.30;;
48635;SDS011;34429;52.332;5.614;2022-09-14T02:32:06;5.45;;;2.88;;
48635;SDS011;34429;52.332;5.614;2022-09-14T02:34:45;6.35;;;2.47;;
48635;SDS011;34429;52.332;5.614;2022-09-14T02:37:23;6.00;;;2.20;;
48635;SDS011;34429;52.332;5.614;2022-09-14T02:40:00;5.32;;;2.45;;
48635;SDS011;34429;52.332;5.614;2022-09-14T02:45:14;7.13;;;2.55;;
48635;SDS011;34429;52.332;5.614;2022-09-14T02:47:51;6.38;;;2.67;;
48635;SDS011;34429;52.332;5.614;2022-09-14T02:50:25;5.15;;;2.60;;
48635;SDS011;34429;52.332;5.614;2022-09-14T02:53:03;5.20;;;2.10;;
48635;SDS011;34429;52.332;5.614;2022-09-14T02:55:40;4.63;;;2.20;;
48635;SDS011;34429;52.332;5.614;2022-09-14T02:58:13;5.18;;;2.17;;
48635;SDS011;34429;52.332;5.614;2022-09-14T03:00:45;4.13;;;2.15;;
48635;SDS011;34429;52.332;5.614;2022-09-14T03:03:16;7.18;;;2.20;;
48635;SDS011;34429;52.332;5.614;2022-09-14T03:05:46;3.00;;;2.20;;
48635;SDS011;34429;52.332;5.614;2022-09-14T03:08:14;5.17;;;2.20;;
48635;SDS011;34429;52.332;5.614;2022-09-14T03:10:42;4.90;;;1.90;;
48635;SDS011;34429;52.332;5.614;2022-09-14T03:13:11;5.00;;;2.10;;
48635;SDS011;34429;52.332;5.614;2022-09-14T03:15:39;8.83;;;2.40;;
48635;SDS011;34429;52.332;5.614;2022-09-14T03:18:10;5.00;;;2.13;;
48635;SDS011;34429;52.332;5.614;2022-09-14T03:20:38;7.07;;;2.10;;
48635;SDS011;34429;52.332;5.614;2022-09-14T03:23:07;6.33;;;2.33;;
48635;SDS011;34429;52.332;5.614;2022-09-14T03:25:35;4.40;;;2.13;;
48635;SDS011;34429;52.332;5.614;2022-09-14T03:28:05;4.30;;;2.50;;
48635;SDS011;34429;52.332;5.614;2022-09-14T03:30:34;2.45;;;1.88;;
48635;SDS011;34429;52.332;5.614;2022-09-14T03:33:02;4.43;;;2.20;;
48635;SDS011;34429;52.332;5.614;2022-09-14T03:35:33;7.88;;;2.30;;
48635;SDS011;34429;52.332;5.614;2022-09-14T03:38:02;6.90;;;2.22;;
48635;SDS011;34429;52.332;5.614;2022-09-14T03:40:30;6.60;;;2.40;;
48635;SDS011;34429;52.332;5.614;2022-09-14T03:42:59;4.38;;;2.10;;
48635;SDS011;34429;52.332;5.614;2022-09-14T03:45:27;3.78;;;2.20;;
48635;SDS011;34429;52.332;5.614;2022-09-14T03:47:55;3.33;;;1.95;;
48635;SDS011;34429;52.332;5.614;2022-09-14T03:50:23;3.85;;;2.13;;
48635;SDS011;34429;52.332;5.614;2022-09-14T03:52:54;9.15;;;2.80;;
48635;SDS011;34429;52.332;5.614;2022-09-14T03:55:23;3.83;;;1.98;;
48635;SDS011;34429;52.332;5.614;2022-09-14T03:57:52;3.85;;;2.00;;
48635;SDS011;34429;52.332;5.614;2022-09-14T04:00:21;5.57;;;2.10;;
48635;SDS011;34429;52.332;5.614;2022-09-14T04:02:49;3.10;;;1.85;;
48635;SDS011;34429;52.332;5.614;2022-09-14T04:05:18;7.20;;;2.20;;
48635;SDS011;34429;52.332;5.614;2022-09-14T04:07:46;4.60;;;2.03;;
48635;SDS011;34429;52.332;5.614;2022-09-14T04:10:17;3.40;;;2.17;;
48635;SDS011;34429;52.332;5.614;2022-09-14T04:12:45;7.70;;;2.20;;
48635;SDS011;34429;52.332;5.614;2022-09-14T04:15:14;5.73;;;2.27;;
48635;SDS011;34429;52.332;5.614;2022-09-14T04:17:42;4.15;;;2.40;;
48635;SDS011;34429;52.332;5.614;2022-09-14T04:22:40;5.05;;;1.95;;
48635;SDS011;34429;52.332;5.614;2022-09-14T04:25:08;5.13;;;2.60;;
48635;SDS011;34429;52.332;5.614;2022-09-14T04:27:39;6.97;;;2.60;;
48635;SDS011;34429;52.332;5.614;2022-09-14T04:30:08;6.45;;;2.42;;
48635;SDS011;34429;52.332;5.614;2022-09-14T04:32:37;5.82;;;2.40;;
48635;SDS011;34429;52.332;5.614;2022-09-14T04:35:05;4.45;;;2.03;;
48635;SDS011;34429;52.332;5.614;2022-09-14T04:37:34;5.50;;;2.45;;
48635;SDS011;34429;52.332;5.614;2022-09-14T04:40:03;3.70;;;2.22;;
48635;SDS011;34429;52.332;5.614;2022-09-14T04:45:03;5.43;;;2.03;;
48635;SDS011;34429;52.332;5.614;2022-09-14T04:47:32;4.57;;;1.85;;
48635;SDS011;34429;52.332;5.614;2022-09-14T04:50:00;3.85;;;2.00;;
48635;SDS011;34429;52.332;5.614;2022-09-14T04:52:28;3.87;;;1.80;;
48635;SDS011;34429;52.332;5.614;2022-09-14T04:54:56;5.60;;;2.05;;
48635;SDS011;34429;52.332;5.614;2022-09-14T04:57:25;4.47;;;2.00;;
48635;SDS011;34429;52.332;5.614;2022-09-14T04:59:53;5.55;;;2.15;;
48635;SDS011;34429;52.332;5.614;2022-09-14T05:02:24;7.22;;;2.67;;
48635;SDS011;34429;52.332;5.614;2022-09-14T05:04:54;3.33;;;2.13;;
48635;SDS011;34429;52.332;5.614;2022-09-14T05:07:23;6.25;;;1.88;;
48635;SDS011;34429;52.332;5.614;2022-09-14T05:09:51;6.97;;;2.00;;
48635;SDS011;34429;52.332;5.614;2022-09-14T05:12:19;9.63;;;2.40;;
48635;SDS011;34429;52.332;5.614;2022-09-14T05:14:48;7.67;;;1.87;;
48635;SDS011;34429;52.332;5.614;2022-09-14T05:17:16;5.17;;;1.93;;
48635;SDS011;34429;52.332;5.614;2022-09-14T05:19:47;5.05;;;1.70;;
48635;SDS011;34429;52.332;5.614;2022-09-14T05:22:15;4.55;;;2.25;;
48635;SDS011;34429;52.332;5.614;2022-09-14T05:27:12;3.83;;;1.80;;
48635;SDS011;34429;52.332;5.614;2022-09-14T05:29:40;6.32;;;1.65;;
48635;SDS011;34429;52.332;5.614;2022-09-14T05:32:09;5.38;;;1.80;;
48635;SDS011;34429;52.332;5.614;2022-09-14T05:34:37;3.05;;;1.52;;
48635;SDS011;34429;52.332;5.614;2022-09-14T05:37:09;3.53;;;2.03;;
48635;SDS011;34429;52.332;5.614;2022-09-14T05:39:38;5.45;;;2.08;;
48635;SDS011;34429;52.332;5.614;2022-09-14T05:42:07;3.58;;;1.60;;
48635;SDS011;34429;52.332;5.614;2022-09-14T05:44:36;5.47;;;1.90;;
48635;SDS011;34429;52.332;5.614;2022-09-14T05:47:04;2.90;;;1.30;;
48635;SDS011;34429;52.332;5.614;2022-09-14T05:49:32;2.35;;;1.55;;
48635;SDS011;34429;52.332;5.614;2022-09-14T05:52:01;5.22;;;1.52;;
48635;SDS011;34429;52.332;5.614;2022-09-14T05:54:32;4.78;;;1.85;;
48635;SDS011;34429;52.332;5.614;2022-09-14T05:57:01;2.95;;;1.70;;
48635;SDS011;34429;52.332;5.614;2022-09-14T05:59:29;5.10;;;1.80;;
48635;SDS011;34429;52.332;5.614;2022-09-14T06:01:57;3.30;;;1.50;;
48635;SDS011;34429;52.332;5.614;2022-09-14T06:04:26;3.97;;;1.50;;
48635;SDS011;34429;52.332;5.614;2022-09-14T06:06:54;3.80;;;1.80;;
48635;SDS011;34429;52.332;5.614;2022-09-14T06:09:22;4.03;;;1.70;;
48635;SDS011;34429;52.332;5.614;2022-09-14T06:11:53;3.37;;;1.50;;
48635;SDS011;34429;52.332;5.614;2022-09-14T06:14:21;4.70;;;1.70;;
48635;SDS011;34429;52.332;5.614;2022-09-14T06:16:50;6.80;;;2.00;;
48635;SDS011;34429;52.332;5.614;2022-09-14T06:19:18;5.27;;;2.00;;
48635;SDS011;34429;52.332;5.614;2022-09-14T06:21:46;7.43;;;1.70;;
48635;SDS011;34429;52.332;5.614;2022-09-14T06:24:15;6.10;;;1.75;;
48635;SDS011;34429;52.332;5.614;2022-09-14T06:26:43;4.27;;;1.63;;
48635;SDS011;34429;52.332;5.614;2022-09-14T06:29:14;5.97;;;2.00;;
48635;SDS011;34429;52.332;5.614;2022-09-14T06:31:42;4.55;;;1.80;;
48635;SDS011;34429;52.332;5.614;2022-09-14T06:34:10;4.13;;;1.50;;
48635;SDS011;34429;52.332;5.614;2022-09-14T06:36:39;2.40;;;1.35;;
48635;SDS011;34429;52.332;5.614;2022-09-14T06:39:09;4.63;;;1.40;;
48635;SDS011;34429;52.332;5.614;2022-09-14T06:41:38;4.10;;;1.35;;
48635;SDS011;34429;52.332;5.614;2022-09-14T06:44:06;4.60;;;1.30;;
48635;SDS011;34429;52.332;5.614;2022-09-14T06:46:37;4.13;;;1.60;;
48635;SDS011;34429;52.332;5.614;2022-09-14T06:49:06;6.88;;;1.40;;
48635;SDS011;34429;52.332;5.614;2022-09-14T06:51:37;5.28;;;1.52;;
48635;SDS011;34429;52.332;5.614;2022-09-14T06:54:07;1.92;;;1.20;;
48635;SDS011;34429;52.332;5.614;2022-09-14T06:56:37;4.18;;;1.45;;
48635;SDS011;34429;52.332;5.614;2022-09-14T06:59:08;2.88;;;1.35;;
48635;SDS011;34429;52.332;5.614;2022-09-14T07:01:40;4.20;;;1.65;;
48635;SDS011;34429;52.332;5.614;2022-09-14T07:04:09;5.82;;;1.63;;
48635;SDS011;34429;52.332;5.614;2022-09-14T07:06:39;3.88;;;1.30;;
48635;SDS011;34429;52.332;5.614;2022-09-14T07:09:09;3.35;;;1.23;;
48635;SDS011;34429;52.332;5.614;2022-09-14T07:11:37;1.73;;;1.15;;
48635;SDS011;34429;52.332;5.614;2022-09-14T07:14:06;4.22;;;1.25;;
48635;SDS011;34429;52.332;5.614;2022-09-14T07:19:08;7.70;;;1.50;;
48635;SDS011;34429;52.332;5.614;2022-09-14T07:21:38;4.38;;;1.48;;
48635;SDS011;34429;52.332;5.614;2022-09-14T07:24:07;4.18;;;1.45;;
48635;SDS011;34429;52.332;5.614;2022-09-14T07:26:36;5.60;;;1.45;;
48635;SDS011;34429;52.332;5.614;2022-09-14T07:29:07;3.80;;;1.27;;
48635;SDS011;34429;52.332;5.614;2022-09-14T07:31:38;3.20;;;1.30;;
48635;SDS011;34429;52.332;5.614;2022-09-14T07:34:11;4.32;;;1.40;;
48635;SDS011;34429;52.332;5.614;2022-09-14T07:36:40;3.72;;;1.20;;
48635;SDS011;34429;52.332;5.614;2022-09-14T07:39:10;3.25;;;1.40;;
48635;SDS011;34429;52.332;5.614;2022-09-14T07:41:39;3.83;;;1.27;;
48635;SDS011;34429;52.332;5.614;2022-09-14T07:44:09;2.13;;;1.00;;
48635;SDS011;34429;52.332;5.614;2022-09-14T07:46:42;3.50;;;1.20;;
48635;SDS011;34429;52.332;5.614;2022-09-14T07:49:14;2.92;;;1.02;;
48635;SDS011;34429;52.332;5.614;2022-09-14T07:51:44;9.13;;;1.50;;
48635;SDS011;34429;52.332;5.614;2022-09-14T07:54:13;4.95;;;1.30;;
48635;SDS011;34429;52.332;5.614;2022-09-14T07:56:43;7.43;;;1.70;;
48635;SDS011;34429;52.332;5.614;2022-09-14T07:59:13;2.78;;;1.13;;
48635;SDS011;34429;52.332;5.614;2022-09-14T08:01:42;3.40;;;1.40;;
48635;SDS011;34429;52.332;5.614;2022-09-14T08:04:10;2.75;;;1.13;;
48635;SDS011;34429;52.332;5.614;2022-09-14T08:06:41;2.50;;;1.10;;
48635;SDS011;34429;52.332;5.614;2022-09-14T08:09:09;9.00;;;1.40;;
48635;SDS011;34429;52.332;5.614;2022-09-14T08:11:38;3.08;;;1.20;;
48635;SDS011;34429;52.332;5.614;2022-09-14T08:14:07;3.10;;;1.50;;
48635;SDS011;34429;52.332;5.614;2022-09-14T08:16:38;2.78;;;1.60;;
48635;SDS011;34429;52.332;5.614;2022-09-14T08:21:41;5.85;;;1.40;;
48635;SDS011;34429;52.332;5.614;2022-09-14T08:24:10;6.70;;;1.20;;
48635;SDS011;34429;52.332;5.614;2022-09-14T08:26:39;5.57;;;1.52;;
48635;SDS011;34429;52.332;5.614;2022-09-14T08:29:08;7.25;;;1.40;;
48635;SDS011;34429;52.332;5.614;2022-09-14T08:31:37;3.00;;;1.10;;
48635;SDS011;34429;52.332;5.614;2022-09-14T08:34:07;4.53;;;1.38;;
48635;SDS011;34429;52.332;5.614;2022-09-14T08:36:36;6.63;;;1.17;;
48635;SDS011;34429;52.332;5.614;2022-09-14T08:39:09;3.45;;;1.05;;
48635;SDS011;34429;52.332;5.614;2022-09-14T08:41:42;3.22;;;1.30;;
48635;SDS011;34429;52.332;5.614;2022-09-14T08:44:16;7.05;;;1.33;;
48635;SDS011;34429;52.332;5.614;2022-09-14T08:46:47;1.80;;;1.00;;
48635;SDS011;34429;52.332;5.614;2022-09-14T08:49:19;3.90;;;1.23;;
48635;SDS011;34429;52.332;5.614;2022-09-14T08:51:50;4.10;;;1.30;;
48635;SDS011;34429;52.332;5.614;2022-09-14T08:54:21;2.72;;;1.30;;
48635;SDS011;34429;52.332;5.614;2022-09-14T08:56:51;4.82;;;1.30;;
48635;SDS011;34429;52.332;5.614;2022-09-14T08:59:37;5.10;;;1.60;;
48635;SDS011;34429;52.332;5.614;2022-09-14T09:02:17;7.43;;;1.60;;
48635;SDS011;34429;52.332;5.614;2022-09-14T09:04:53;5.53;;;1.58;;
48635;SDS011;34429;52.332;5.614;2022-09-14T09:07:30;2.75;;;1.17;;
48635;SDS011;34429;52.332;5.614;2022-09-14T09:10:07;3.38;;;1.30;;
48635;SDS011;34429;52.332;5.614;2022-09-14T09:12:41;6.47;;;1.50;;
48635;SDS011;34429;52.332;5.614;2022-09-14T09:15:14;6.30;;;1.30;;
48635;SDS011;34429;52.332;5.614;2022-09-14T09:17:51;11.48;;;2.08;;
48635;SDS011;34429;52.332;5.614;2022-09-14T09:20:23;4.00;;;1.35;;
48635;SDS011;34429;52.332;5.614;2022-09-14T09:23:00;3.95;;;1.55;;
48635;SDS011;34429;52.332;5.614;2022-09-14T09:28:18;6.65;;;1.67;;
48635;SDS011;34429;52.332;5.614;2022-09-14T09:30:48;5.53;;;1.98;;
48635;SDS011;34429;52.332;5.614;2022-09-14T09:33:19;5.65;;;1.40;;
48635;SDS011;34429;52.332;5.614;2022-09-14T09:35:49;4.40;;;1.50;;
48635;SDS011;34429;52.332;5.614;2022-09-14T09:38:22;3.25;;;1.30;;
48635;SDS011;34429;52.332;5.614;2022-09-14T09:40:55;3.08;;;1.30;;
48635;SDS011;34429;52.332;5.614;2022-09-14T09:43:26;6.15;;;1.40;;
48635;SDS011;34429;52.332;5.614;2022-09-14T09:45:55;4.60;;;1.30;;
48635;SDS011;34429;52.332;5.614;2022-09-14T09:48:27;6.60;;;1.10;;
48635;SDS011;34429;52.332;5.614;2022-09-14T09:51:00;7.25;;;1.30;;
48635;SDS011;34429;52.332;5.614;2022-09-14T09:53:33;2.65;;;0.90;;
48635;SDS011;34429;52.332;5.614;2022-09-14T09:56:07;3.28;;;1.10;;
48635;SDS011;34429;52.332;5.614;2022-09-14T09:58:46;3.08;;;1.45;;
48635;SDS011;34429;52.332;5.614;2022-09-14T10:01:19;6.10;;;1.50;;
48635;SDS011;34429;52.332;5.614;2022-09-14T10:04:00;4.50;;;1.48;;
48635;SDS011;34429;52.332;5.614;2022-09-14T10:06:31;4.28;;;1.00;;
48635;SDS011;34429;52.332;5.614;2022-09-14T10:09:11;3.50;;;1.20;;
48635;SDS011;34429;52.332;5.614;2022-09-14T10:11:43;3.55;;;0.95;;
48635;SDS011;34429;52.332;5.614;2022-09-14T10:14:19;4.32;;;0.98;;
48635;SDS011;34429;52.332;5.614;2022-09-14T10:16:52;2.63;;;0.90;;
48635;SDS011;34429;52.332;5.614;2022-09-14T10:19:30;5.35;;;0.90;;
48635;SDS011;34429;52.332;5.614;2022-09-14T10:22:01;3.05;;;0.90;;
48635;SDS011;34429;52.332;5.614;2022-09-14T10:24:54;5.13;;;1.13;;
48635;SDS011;34429;52.332;5.614;2022-09-14T10:27:34;2.65;;;0.85;;
48635;SDS011;34429;52.332;5.614;2022-09-14T10:30:09;3.10;;;0.80;;
48635;SDS011;34429;52.332;5.614;2022-09-14T10:32:42;2.78;;;0.98;;
48635;SDS011;34429;52.332;5.614;2022-09-14T10:35:15;3.40;;;0.93;;
48635;SDS011;34429;52.332;5.614;2022-09-14T10:37:51;1.38;;;0.80;;
48635;SDS011;34429;52.332;5.614;2022-09-14T10:40:30;1.85;;;0.80;;
48635;SDS011;34429;52.332;5.614;2022-09-14T10:43:10;3.42;;;0.82;;
48635;SDS011;34429;52.332;5.614;2022-09-14T10:45:44;3.90;;;1.17;;
48635;SDS011;34429;52.332;5.614;2022-09-14T10:48:22;4.10;;;0.90;;
48635;SDS011;34429;52.332;5.614;2022-09-14T10:51:07;6.20;;;1.10;;
48635;SDS011;34429;52.332;5.614;2022-09-14T10:53:54;4.65;;;0.80;;
48635;SDS011;34429;52.332;5.614;2022-09-14T10:59:12;4.47;;;0.90;;
48635;SDS011;34429;52.332;5.614;2022-09-14T11:01:57;3.78;;;0.85;;
48635;SDS011;34429;52.332;5.614;2022-09-14T11:04:47;3.10;;;0.85;;
48635;SDS011;34429;52.332;5.614;2022-09-14T11:07:29;2.13;;;1.05;;
48635;SDS011;34429;52.332;5.614;2022-09-14T11:10:06;1.67;;;0.95;;
48635;SDS011;34429;52.332;5.614;2022-09-14T11:12:46;3.55;;;1.00;;
48635;SDS011;34429;52.332;5.614;2022-09-14T11:15:28;2.38;;;1.00;;
48635;SDS011;34429;52.332;5.614;2022-09-14T11:18:08;3.85;;;1.10;;
48635;SDS011;34429;52.332;5.614;2022-09-14T11:20:47;4.78;;;2.00;;
48635;SDS011;34429;52.332;5.614;2022-09-14T11:23:28;2.35;;;0.70;;
48635;SDS011;34429;52.332;5.614;2022-09-14T11:26:06;3.92;;;1.10;;
48635;SDS011;34429;52.332;5.614;2022-09-14T11:28:41;2.15;;;0.90;;
48635;SDS011;34429;52.332;5.614;2022-09-14T11:31:17;4.07;;;0.95;;
48635;SDS011;34429;52.332;5.614;2022-09-14T11:33:51;6.43;;;1.17;;
48635;SDS011;34429;52.332;5.614;2022-09-14T11:36:23;3.80;;;0.95;;
48635;SDS011;34429;52.332;5.614;2022-09-14T11:38:58;4.75;;;1.10;;
48635;SDS011;34429;52.332;5.614;2022-09-14T11:41:30;3.63;;;1.38;;
48635;SDS011;34429;52.332;5.614;2022-09-14T11:44:03;2.95;;;0.85;;
48635;SDS011;34429;52.332;5.614;2022-09-14T11:46:41;4.20;;;1.00;;
48635;SDS011;34429;52.332;5.614;2022-09-14T11:49:18;3.65;;;0.88;;
48635;SDS011;34429;52.332;5.614;2022-09-14T11:51:52;1.92;;;0.90;;
48635;SDS011;34429;52.332;5.614;2022-09-14T11:54:24;3.30;;;0.88;;
48635;SDS011;34429;52.332;5.614;2022-09-14T11:56:55;4.13;;;1.05;;
48635;SDS011;34429;52.332;5.614;2022-09-14T12:05:26;2.45;;;0.80;;
48635;SDS011;34429;52.332;5.614;2022-09-14T12:10:59;2.33;;;0.90;;
48635;SDS011;34429;52.332;5.614;2022-09-14T12:13:30;1.42;;;0.80;;
48635;SDS011;34429;52.332;5.614;2022-09-14T12:16:02;4.20;;;1.02;;
48635;SDS011;34429;52.332;5.614;2022-09-14T12:18:31;1.35;;;0.70;;
48635;SDS011;34429;52.332;5.614;2022-09-14T12:21:12;2.92;;;1.13;;
48635;SDS011;34429;52.332;5.614;2022-09-14T12:23:47;3.97;;;1.10;;
48635;SDS011;34429;52.332;5.614;2022-09-14T12:29:02;2.05;;;0.93;;
48635;SDS011;34429;52.332;5.614;2022-09-14T12:31:35;1.67;;;0.70;;
48635;SDS011;34429;52.332;5.614;2022-09-14T12:34:14;4.03;;;0.80;;
48635;SDS011;34429;52.332;5.614;2022-09-14T12:37:00;4.00;;;1.00;;
48635;SDS011;34429;52.332;5.614;2022-09-14T12:39:32;3.22;;;0.88;;
48635;SDS011;34429;52.332;5.614;2022-09-14T12:44:52;2.55;;;1.00;;
48635;SDS011;34429;52.332;5.614;2022-09-14T12:50:25;3.15;;;1.00;;
48635;SDS011;34429;52.332;5.614;2022-09-14T12:56:01;2.88;;;1.00;;
48635;SDS011;34429;52.332;5.614;2022-09-14T12:58:39;1.95;;;0.88;;
48635;SDS011;34429;52.332;5.614;2022-09-14T13:01:26;2.97;;;1.02;;
48635;SDS011;34429;52.332;5.614;2022-09-14T13:04:01;5.00;;;1.20;;
48635;SDS011;34429;52.332;5.614;2022-09-14T13:06:33;2.45;;;0.88;;
48635;SDS011;34429;52.332;5.614;2022-09-14T13:09:14;1.90;;;0.90;;
48635;SDS011;34429;52.332;5.614;2022-09-14T13:11:47;2.72;;;0.80;;
48635;SDS011;34429;52.332;5.614;2022-09-14T13:14:21;2.17;;;0.90;;
48635;SDS011;34429;52.332;5.614;2022-09-14T13:16:51;1.70;;;0.90;;
48635;SDS011;34429;52.332;5.614;2022-09-14T13:19:22;4.03;;;1.17;;
48635;SDS011;34429;52.332;5.614;2022-09-14T13:21:52;3.20;;;1.10;;
48635;SDS011;34429;52.332;5.614;2022-09-14T13:24:26;3.58;;;1.00;;
48635;SDS011;34429;52.332;5.614;2022-09-14T13:26:59;3.58;;;0.93;;
48635;SDS011;34429;52.332;5.614;2022-09-14T13:29:29;3.92;;;1.10;;
48635;SDS011;34429;52.332;5.614;2022-09-14T13:34:27;3.45;;;1.13;;
48635;SDS011;34429;52.332;5.614;2022-09-14T13:37:00;5.35;;;0.90;;
48635;SDS011;34429;52.332;5.614;2022-09-14T13:42:01;5.38;;;0.98;;
48635;SDS011;34429;52.332;5.614;2022-09-14T13:44:31;3.95;;;1.23;;
48635;SDS011;34429;52.332;5.614;2022-09-14T13:47:03;2.03;;;1.17;;
48635;SDS011;34429;52.332;5.614;2022-09-14T13:49:33;5.22;;;1.08;;
48635;SDS011;34429;52.332;5.614;2022-09-14T13:55:06;2.17;;;0.90;;
48635;SDS011;34429;52.332;5.614;2022-09-14T14:00:32;5.38;;;1.38;;
48635;SDS011;34429;52.332;5.614;2022-09-14T14:03:24;6.15;;;1.48;;
48635;SDS011;34429;52.332;5.614;2022-09-14T14:05:56;2.95;;;1.20;;
48635;SDS011;34429;52.332;5.614;2022-09-14T14:08:26;4.22;;;1.00;;
48635;SDS011;34429;52.332;5.614;2022-09-14T14:11:02;2.70;;;1.00;;
48635;SDS011;34429;52.332;5.614;2022-09-14T14:13:32;1.95;;;0.93;;
48635;SDS011;34429;52.332;5.614;2022-09-14T14:16:12;3.33;;;1.27;;
48635;SDS011;34429;52.332;5.614;2022-09-14T14:18:42;3.80;;;1.23;;
48635;SDS011;34429;52.332;5.614;2022-09-14T14:21:27;1.88;;;0.90;;
48635;SDS011;34429;52.332;5.614;2022-09-14T14:26:49;3.05;;;1.10;;
48635;SDS011;34429;52.332;5.614;2022-09-14T14:29:18;4.00;;;1.17;;
48635;SDS011;34429;52.332;5.614;2022-09-14T14:31:46;4.20;;;1.20;;
48635;SDS011;34429;52.332;5.614;2022-09-14T14:34:16;3.28;;;1.00;;
48635;SDS011;34429;52.332;5.614;2022-09-14T14:36:47;1.77;;;0.70;;
48635;SDS011;34429;52.332;5.614;2022-09-14T14:39:17;4.40;;;1.15;;
48635;SDS011;34429;52.332;5.614;2022-09-14T14:41:49;1.42;;;0.85;;
48635;SDS011;34429;52.332;5.614;2022-09-14T14:44:20;3.03;;;1.10;;
48635;SDS011;34429;52.332;5.614;2022-09-14T14:46:52;3.28;;;1.00;;
48635;SDS011;34429;52.332;5.614;2022-09-14T14:49:21;1.17;;;0.77;;
48635;SDS011;34429;52.332;5.614;2022-09-14T14:51:49;3.85;;;1.58;;
48635;SDS011;34429;52.332;5.614;2022-09-14T14:54:18;2.50;;;1.00;;
48635;SDS011;34429;52.332;5.614;2022-09-14T14:56:49;2.53;;;1.20;;
48635;SDS011;34429;52.332;5.614;2022-09-14T14:59:24;2.13;;;1.10;;
48635;SDS011;34429;52.332;5.614;2022-09-14T15:01:54;3.10;;;0.93;;
48635;SDS011;34429;52.332;5.614;2022-09-14T15:04:23;1.30;;;0.60;;
48635;SDS011;34429;52.332;5.614;2022-09-14T15:06:51;3.08;;;0.80;;
48635;SDS011;34429;52.332;5.614;2022-09-14T15:11:52;1.27;;;0.70;;
48635;SDS011;34429;52.332;5.614;2022-09-14T15:14:22;1.88;;;0.90;;
48635;SDS011;34429;52.332;5.614;2022-09-14T15:16:51;1.77;;;0.82;;
48635;SDS011;34429;52.332;5.614;2022-09-14T15:19:23;1.30;;;0.70;;
48635;SDS011;34429;52.332;5.614;2022-09-14T15:21:52;3.92;;;0.82;;
48635;SDS011;34429;52.332;5.614;2022-09-14T15:24:20;2.38;;;0.60;;
48635;SDS011;34429;52.332;5.614;2022-09-14T15:26:48;2.15;;;0.70;;
48635;SDS011;34429;52.332;5.614;2022-09-14T15:29:20;1.27;;;0.80;;
48635;SDS011;34429;52.332;5.614;2022-09-14T15:31:48;4.75;;;1.02;;
48635;SDS011;34429;52.332;5.614;2022-09-14T15:34:20;3.10;;;0.75;;
48635;SDS011;34429;52.332;5.614;2022-09-14T15:36:49;1.23;;;0.85;;
48635;SDS011;34429;52.332;5.614;2022-09-14T15:39:21;1.17;;;0.50;;
48635;SDS011;34429;52.332;5.614;2022-09-14T15:41:53;2.70;;;0.70;;
48635;SDS011;34429;52.332;5.614;2022-09-14T15:44:22;2.45;;;0.60;;
48635;SDS011;34429;52.332;5.614;2022-09-14T15:49:20;4.38;;;1.20;;
48635;SDS011;34429;52.332;5.614;2022-09-14T15:51:51;1.35;;;0.80;;
48635;SDS011;34429;52.332;5.614;2022-09-14T15:54:22;2.60;;;0.50;;
48635;SDS011;34429;52.332;5.614;2022-09-14T15:56:55;3.25;;;0.70;;
48635;SDS011;34429;52.332;5.614;2022-09-14T15:59:25;3.03;;;0.60;;
48635;SDS011;34429;52.332;5.614;2022-09-14T16:04:22;1.17;;;0.60;;
48635;SDS011;34429;52.332;5.614;2022-09-14T16:06:50;1.58;;;0.68;;
48635;SDS011;34429;52.332;5.614;2022-09-14T16:09:19;2.95;;;0.60;;
48635;SDS011;34429;52.332;5.614;2022-09-14T16:11:47;3.10;;;0.70;;
48635;SDS011;34429;52.332;5.614;2022-09-14T16:14:18;1.05;;;0.70;;
48635;SDS011;34429;52.332;5.614;2022-09-14T16:16:46;2.03;;;1.13;;
48635;SDS011;34429;52.332;5.614;2022-09-14T16:19:15;1.88;;;0.88;;
48635;SDS011;34429;52.332;5.614;2022-09-14T16:21:43;4.47;;;0.90;;
48635;SDS011;34429;52.332;5.614;2022-09-14T16:24:13;1.33;;;0.70;;
48635;SDS011;34429;52.332;5.614;2022-09-14T16:26:42;1.15;;;0.60;;